createdAt,value
2022-11-10T00:01:32.033Z,100228.50
2022-11-10T00:03:35.918Z,100216.00
2022-11-10T00:05:39.074Z,100200.25
2022-11-10T00:07:41.458Z,100203.50
2022-11-10T00:09:43.276Z,100182.09
2022-11-10T00:11:46.378Z,100197.00
2022-11-10T00:14:07.432Z,100212.09
2022-11-10T00:16:29.051Z,100214.84
2022-11-10T00:18:31.260Z,100207.38
2022-11-10T00:20:33.084Z,100192.50
2022-11-10T00:22:35.846Z,100215.03
2022-11-10T00:24:38.026Z,100215.19
2022-11-10T00:26:39.840Z,100227.03
2022-11-10T00:28:42.393Z,100235.00
2022-11-10T00:30:46.775Z,100235.00
2022-11-10T00:32:48.971Z,100221.34
2022-11-10T00:34:50.810Z,100218.75
2022-11-10T00:36:53.091Z,100231.91
2022-11-10T00:38:55.123Z,100233.84
2022-11-10T00:40:58.943Z,100232.72
2022-11-10T00:43:01.480Z,100228.66
2022-11-10T00:45:03.532Z,100234.47
2022-11-10T00:47:05.733Z,100223.97
2022-11-10T00:49:07.895Z,100228.97
2022-11-10T00:51:26.319Z,100243.91
2022-11-10T00:53:28.124Z,100237.59
2022-11-10T00:55:30.408Z,100237.41
2022-11-10T00:57:32.327Z,100241.47
2022-11-10T00:59:34.209Z,100227.53
2022-11-10T01:01:37.091Z,100235.16
2022-11-10T01:03:39.223Z,100237.56
2022-11-10T01:05:41.862Z,100240.81
2022-11-10T01:07:43.891Z,100251.19
2022-11-10T01:09:45.817Z,100250.22
2022-11-10T01:11:47.610Z,100243.09
2022-11-10T01:13:51.739Z,100241.47
2022-11-10T01:15:53.533Z,100238.69
2022-11-10T01:17:56.890Z,100240.16
2022-11-10T01:19:59.012Z,100238.19
2022-11-10T01:22:01.873Z,100243.06
2022-11-10T01:24:03.896Z,100243.59
2022-11-10T01:26:07.192Z,100232.53
2022-11-10T01:28:08.886Z,100227.50
2022-11-10T01:30:11.364Z,100229.44
2022-11-10T01:32:13.521Z,100229.28
2022-11-10T01:34:15.623Z,100216.28
2022-11-10T01:36:17.729Z,100223.91
2022-11-10T01:38:19.930Z,100230.41
2022-11-10T01:40:21.818Z,100224.09
2022-11-10T01:42:28.973Z,100226.97
2022-11-10T01:44:31.166Z,100234.28
2022-11-10T01:46:33.092Z,100230.88
2022-11-10T01:48:47.053Z,100233.34
2022-11-10T01:50:49.621Z,100234.31
2022-11-10T01:52:55.049Z,100228.97
2022-11-10T01:54:56.933Z,100231.22
2022-11-10T01:57:05.261Z,100233.00
2022-11-10T01:59:12.200Z,100233.97
2022-11-10T02:01:14.536Z,100238.72
2022-11-10T02:03:29.488Z,100236.88
2022-11-10T02:05:31.976Z,100235.75
2022-11-10T02:07:34.368Z,100224.25
2022-11-10T02:09:36.871Z,100239.63
2022-11-10T02:11:40.481Z,100237.50
2022-11-10T02:13:43.152Z,100243.22
2022-11-10T02:15:45.644Z,100248.72
2022-11-10T02:17:48.347Z,100246.09
2022-11-10T02:19:51.670Z,100247.75
2022-11-10T02:21:53.890Z,100241.41
2022-11-10T02:23:55.754Z,100243.50
2022-11-10T02:25:58.528Z,100250.47
2022-11-10T02:28:00.687Z,100249.00
2022-11-10T02:30:05.247Z,100251.59
2022-11-10T02:32:07.104Z,100246.06
2022-11-10T02:34:09.279Z,100246.88
2022-11-10T02:36:11.697Z,100249.50
2022-11-10T02:38:14.359Z,100257.78
2022-11-10T02:40:16.531Z,100262.47
2022-11-10T02:42:18.318Z,100261.34
2022-11-10T02:44:20.616Z,100263.63
2022-11-10T02:46:23.121Z,100256.31
2022-11-10T02:48:24.919Z,100271.06
2022-11-10T02:50:27.037Z,100277.06
2022-11-10T02:52:29.505Z,100268.81
2022-11-10T02:54:31.352Z,100273.22
2022-11-10T02:56:33.149Z,100274.16
2022-11-10T02:58:35.286Z,100272.88
2022-11-10T03:00:37.154Z,100275.00
2022-11-10T03:02:39.269Z,100250.53
2022-11-10T03:04:41.675Z,100259.63
2022-11-10T03:06:43.883Z,100269.03
2022-11-10T03:08:46.292Z,100280.19
2022-11-10T03:10:48.531Z,100282.47
2022-11-10T03:12:55.420Z,100280.84
2022-11-10T03:14:57.460Z,100275.63
2022-11-10T03:16:59.829Z,100253.72
2022-11-10T03:19:01.721Z,100269.78
2022-11-10T03:21:03.659Z,100260.66
2022-11-10T03:23:06.360Z,100245.75
2022-11-10T03:25:09.041Z,100280.44
2022-11-10T03:27:10.822Z,100281.28
2022-11-10T03:29:12.962Z,100277.56
2022-11-10T03:31:14.743Z,100269.78
2022-11-10T03:33:17.022Z,100274.78
2022-11-10T03:35:19.255Z,100280.44
2022-11-10T03:37:21.042Z,100274.09
2022-11-10T03:39:24.438Z,100285.31
2022-11-10T03:41:26.602Z,100290.34
2022-11-10T03:43:28.393Z,100273.47
2022-11-10T03:45:30.198Z,100285.00
2022-11-10T03:47:32.401Z,100289.03
2022-11-10T03:49:34.213Z,100290.63
2022-11-10T03:51:36.022Z,100291.63
2022-11-10T03:53:38.198Z,100303.31
2022-11-10T03:55:39.988Z,100296.50
2022-11-10T03:57:41.859Z,100302.16
2022-11-10T03:59:44.027Z,100299.56
2022-11-10T04:01:46.138Z,100295.16
2022-11-10T04:03:51.527Z,100302.75
2022-11-10T04:06:12.313Z,100303.06
2022-11-10T04:08:35.407Z,100297.53
2022-11-10T04:10:37.351Z,100305.16
2022-11-10T04:12:57.889Z,100308.38
2022-11-10T04:15:18.519Z,100295.25
2022-11-10T04:17:20.368Z,100302.38
2022-11-10T04:19:22.740Z,100307.75
2022-11-10T04:21:24.542Z,100303.31
2022-11-10T04:23:35.002Z,100307.44
2022-11-10T04:25:57.116Z,100309.06
2022-11-10T04:27:58.969Z,100316.81
2022-11-10T04:30:00.770Z,100321.38
2022-11-10T04:32:03.046Z,100314.22
2022-11-10T04:34:07.333Z,100317.41
2022-11-10T04:36:11.291Z,100309.13
2022-11-10T04:38:13.473Z,100304.91
2022-11-10T04:40:15.682Z,100302.69
2022-11-10T04:42:17.521Z,100325.59
2022-11-10T04:44:19.675Z,100333.56
2022-11-10T04:46:34.952Z,100335.16
2022-11-10T04:48:36.873Z,100317.38
2022-11-10T04:50:39.132Z,100331.44
2022-11-10T04:52:40.929Z,100313.56
2022-11-10T04:54:43.082Z,100331.41
2022-11-10T04:56:45.275Z,100326.31
2022-11-10T04:58:48.236Z,100326.28
2022-11-10T05:00:50.004Z,100330.06
2022-11-10T05:02:52.211Z,100330.16
2022-11-10T05:04:54.060Z,100327.59
2022-11-10T05:06:56.019Z,100322.00
2022-11-10T05:08:58.220Z,100318.41
2022-11-10T05:11:00.277Z,100335.97
2022-11-10T05:13:03.340Z,100344.75
2022-11-10T05:15:06.270Z,100315.56
2022-11-10T05:17:08.060Z,100342.16
2022-11-10T05:19:10.036Z,100338.94
2022-11-10T05:21:12.142Z,100346.06
2022-11-10T05:23:32.386Z,100345.06
2022-11-10T05:25:36.445Z,100355.81
2022-11-10T05:27:38.657Z,100359.88
2022-11-10T05:29:40.457Z,100353.22
2022-11-10T05:31:42.288Z,100368.31
2022-11-10T05:33:44.641Z,100364.94
2022-11-10T05:35:49.017Z,100366.25
2022-11-10T05:37:51.604Z,100379.06
2022-11-10T05:39:53.798Z,100381.34
2022-11-10T05:41:55.683Z,100383.00
2022-11-10T05:43:57.459Z,100380.88
2022-11-10T05:45:59.948Z,100379.28
2022-11-10T05:48:01.782Z,100394.22
2022-11-10T05:50:04.739Z,100398.09
2022-11-10T05:52:06.868Z,100401.19
2022-11-10T05:54:09.099Z,100392.28
2022-11-10T05:56:10.862Z,100403.00
2022-11-10T05:58:13.587Z,100414.53
2022-11-10T06:00:18.349Z,100420.22
2022-11-10T06:02:20.348Z,100414.69
2022-11-10T06:04:22.649Z,100424.16
2022-11-10T06:06:25.044Z,100424.78
2022-11-10T06:08:26.864Z,100424.47
2022-11-10T06:10:29.290Z,100431.75
2022-11-10T06:12:31.128Z,100429.47
2022-11-10T06:14:33.014Z,100428.34
2022-11-10T06:16:35.386Z,100434.06
2022-11-10T06:18:37.170Z,100448.19
2022-11-10T06:20:39.068Z,100436.97
2022-11-10T06:22:41.624Z,100443.47
2022-11-10T06:24:43.467Z,100454.34
2022-11-10T06:26:45.288Z,100454.22
2022-11-10T06:28:47.471Z,100448.19
2022-11-10T06:30:49.268Z,100441.88
2022-11-10T06:32:51.179Z,100460.56
2022-11-10T06:34:57.838Z,100469.81
2022-11-10T06:37:02.117Z,100475.63
2022-11-10T06:39:07.073Z,100462.53
2022-11-10T06:41:09.721Z,100471.59
2022-11-10T06:43:11.882Z,100452.59
2022-11-10T06:45:13.719Z,100478.59
2022-11-10T06:47:16.464Z,100477.16
2022-11-10T06:49:18.432Z,100482.81
2022-11-10T06:51:20.225Z,100484.94
2022-11-10T06:53:26.861Z,100500.03
2022-11-10T06:55:29.525Z,100496.59
2022-11-10T06:57:38.142Z,100502.81
2022-11-10T06:59:40.269Z,100505.97
2022-11-10T07:01:42.247Z,100506.97
2022-11-10T07:04:05.202Z,100510.84
2022-11-10T07:06:06.956Z,100499.13
2022-11-10T07:08:17.497Z,100510.69
2022-11-10T07:10:19.312Z,100512.28
2022-11-10T07:12:21.663Z,100501.44
2022-11-10T07:14:23.477Z,100511.97
2022-11-10T07:16:25.305Z,100504.78
2022-11-10T07:18:27.432Z,100489.03
2022-11-10T07:20:30.383Z,100521.75
2022-11-10T07:22:32.410Z,100520.59
2022-11-10T07:24:34.937Z,100519.00
2022-11-10T07:26:36.785Z,100526.44
2022-11-10T07:28:39.093Z,100531.97
2022-11-10T07:30:41.675Z,100522.19
2022-11-10T07:32:43.859Z,100517.97
2022-11-10T07:34:46.034Z,100528.09
2022-11-10T07:36:48.412Z,100534.44
2022-11-10T07:38:50.210Z,100504.16
2022-11-10T07:40:53.896Z,100527.97
2022-11-10T07:42:56.142Z,100531.88
2022-11-10T07:44:57.960Z,100540.34
2022-11-10T07:46:59.969Z,100543.72
2022-11-10T07:49:02.202Z,100549.06
2022-11-10T07:51:04.598Z,100545.50
2022-11-10T07:53:08.694Z,100545.31
2022-11-10T07:55:11.040Z,100544.28
2022-11-10T07:57:12.927Z,100551.59
2022-11-10T07:59:14.809Z,100551.94
2022-11-10T08:01:17.079Z,100558.56
2022-11-10T08:03:21.782Z,100542.81
2022-11-10T08:05:24.012Z,100554.25
2022-11-10T08:07:26.236Z,100540.34
2022-11-10T08:09:28.449Z,100561.38
2022-11-10T08:11:30.370Z,100572.09
2022-11-10T08:13:32.588Z,100560.72
2022-11-10T08:15:35.070Z,100573.97
2022-11-10T08:17:36.969Z,100580.78
2022-11-10T08:19:39.098Z,100586.00
2022-11-10T08:21:40.926Z,100573.28
2022-11-10T08:23:42.902Z,100588.22
2022-11-10T08:25:46.848Z,100578.63
2022-11-10T08:27:48.735Z,100572.47
2022-11-10T08:29:50.594Z,100591.94
2022-11-10T08:31:53.273Z,100568.09
2022-11-10T08:33:55.088Z,100578.81
2022-11-10T08:35:56.927Z,100580.31
2022-11-10T08:37:59.044Z,100601.75
2022-11-10T08:40:00.850Z,100604.50
2022-11-10T08:42:02.825Z,100600.59
2022-11-10T08:44:08.167Z,100608.22
2022-11-10T08:46:12.658Z,100614.06
2022-11-10T08:48:16.832Z,100612.81
2022-11-10T08:50:19.110Z,100610.19
2022-11-10T08:52:20.927Z,100618.91
2022-11-10T08:54:22.779Z,100621.50
2022-11-10T08:56:24.924Z,100621.19
2022-11-10T08:58:26.814Z,100639.69
2022-11-10T09:00:30.708Z,100641.38
2022-11-10T09:02:32.908Z,100642.38
2022-11-10T09:04:34.782Z,100643.69
2022-11-10T09:06:36.630Z,100640.91
2022-11-10T09:08:38.899Z,100639.53
2022-11-10T09:10:51.100Z,100650.13
2022-11-10T09:12:52.978Z,100652.28
2022-11-10T09:14:55.825Z,100656.22
2022-11-10T09:16:57.658Z,100659.88
2022-11-10T09:18:59.498Z,100663.19
2022-11-10T09:21:03.577Z,100668.06
2022-11-10T09:23:13.958Z,100662.66
2022-11-10T09:25:16.133Z,100652.09
2022-11-10T09:27:18.582Z,100647.16
2022-11-10T09:29:21.295Z,100673.59
2022-11-10T09:31:23.599Z,100672.59
2022-11-10T09:33:26.325Z,100665.75
2022-11-10T09:35:28.510Z,100653.94
2022-11-10T09:37:30.823Z,100660.75
2022-11-10T09:39:33.296Z,100675.09
2022-11-10T09:41:40.196Z,100660.03
2022-11-10T09:43:58.445Z,100679.44
2022-11-10T09:46:04.930Z,100666.78
2022-11-10T09:48:31.254Z,100681.72
2022-11-10T09:51:11.013Z,100678.28
2022-11-10T09:53:21.411Z,100684.56
2022-11-10T09:55:52.301Z,100686.13
2022-11-10T09:57:57.111Z,100684.00
2022-11-10T09:59:59.692Z,100691.44
2022-11-10T10:02:16.427Z,100692.56
2022-11-10T10:04:56.004Z,100695.94
2022-11-10T10:07:22.932Z,100692.81
2022-11-10T10:10:00.079Z,100682.53
2022-11-10T10:12:28.270Z,100692.69
2022-11-10T10:14:58.595Z,100687.84
2022-11-10T10:17:04.463Z,100705.63
2022-11-10T10:19:14.015Z,100706.19
2022-11-10T10:21:49.298Z,100700.78
2022-11-10T10:24:15.240Z,100703.81
2022-11-10T10:26:21.676Z,100698.97
2022-11-10T10:28:23.958Z,100705.47
2022-11-10T10:30:26.090Z,100680.81
2022-11-10T10:32:28.879Z,100705.06
2022-11-10T10:34:34.612Z,100702.50
2022-11-10T10:36:36.504Z,100710.22
2022-11-10T10:38:40.221Z,100687.25
2022-11-10T10:40:44.288Z,100703.94
2022-11-10T10:42:46.605Z,100693.19
2022-11-10T10:45:18.490Z,100704.03
2022-11-10T10:47:36.149Z,100708.41
2022-11-10T10:49:37.967Z,100712.66
2022-11-10T10:51:40.449Z,100703.25
2022-11-10T10:53:47.694Z,100708.00
2022-11-10T10:56:02.210Z,100709.75
2022-11-10T10:58:20.327Z,100712.75
2022-11-10T11:00:23.544Z,100697.00
2022-11-10T11:02:29.861Z,100705.44
2022-11-10T11:04:37.032Z,100704.50
2022-11-10T11:06:39.003Z,100709.38
2022-11-10T11:08:58.172Z,100715.28
2022-11-10T11:11:11.571Z,100722.50
2022-11-10T11:13:27.251Z,100719.78
2022-11-10T11:15:30.465Z,100714.84
2022-11-10T11:17:32.689Z,100711.72
2022-11-10T11:19:37.512Z,100719.00
2022-11-10T11:21:50.638Z,100709.97
2022-11-10T11:24:10.900Z,100720.63
2022-11-10T11:26:50.432Z,100716.91
2022-11-10T11:29:21.618Z,100725.25
2022-11-10T11:31:43.222Z,100713.84
2022-11-10T11:34:10.087Z,100727.84
2022-11-10T11:36:46.821Z,100736.34
2022-11-10T11:39:04.298Z,100737.50
2022-11-10T11:41:30.690Z,100742.72
2022-11-10T11:43:57.688Z,100736.47
2022-11-10T11:46:12.580Z,100737.31
2022-11-10T11:48:39.022Z,100735.44
2022-11-10T11:50:50.596Z,100728.06
2022-11-10T11:53:19.009Z,100735.69
2022-11-10T11:55:34.071Z,100741.38
2022-11-10T11:57:44.193Z,100741.25
2022-11-10T12:00:06.018Z,100730.81
2022-11-10T12:02:50.100Z,100730.94
2022-11-10T12:05:13.302Z,100748.66
2022-11-10T12:07:35.652Z,100743.44
2022-11-10T12:09:46.185Z,100746.78
2022-11-10T12:12:13.782Z,100748.66
2022-11-10T12:14:34.934Z,100752.31
2022-11-10T12:16:38.698Z,100757.38
2022-11-10T12:19:22.406Z,100741.38
2022-11-10T12:21:28.195Z,100759.56
2022-11-10T12:23:47.954Z,100757.09
2022-11-10T12:25:59.851Z,100763.16
2022-11-10T12:28:14.254Z,100728.75
2022-11-10T12:30:17.769Z,100767.41
2022-11-10T12:32:28.347Z,100769.53
2022-11-10T12:34:48.189Z,100766.97
2022-11-10T12:36:51.794Z,100766.06
2022-11-10T12:39:01.340Z,100782.03
2022-11-10T12:41:11.139Z,100787.84
2022-11-10T12:43:44.066Z,100787.25
2022-11-10T12:45:51.218Z,100791.31
2022-11-10T12:47:54.486Z,100797.47
2022-11-10T12:50:11.652Z,100802.09
2022-11-10T12:52:13.779Z,100802.09
2022-11-10T12:54:17.917Z,100786.13
2022-11-10T12:56:31.897Z,100792.25
2022-11-10T12:58:34.175Z,100800.69
2022-11-10T13:00:44.114Z,100803.56
2022-11-10T13:02:46.951Z,100813.19
2022-11-10T13:05:10.055Z,100810.63
2022-11-10T13:07:13.797Z,100812.63
2022-11-10T13:09:29.442Z,100807.84
2022-11-10T13:11:34.804Z,100817.00
2022-11-10T13:13:59.457Z,100802.91
2022-11-10T13:16:01.838Z,100811.50
2022-11-10T13:18:05.613Z,100821.41
2022-11-10T13:20:39.305Z,100828.19
2022-11-10T13:22:41.668Z,100828.63
2022-11-10T13:24:44.494Z,100830.34
2022-11-10T13:26:49.796Z,100844.16
2022-11-10T13:28:51.603Z,100848.53
2022-11-10T13:30:53.773Z,100827.94
2022-11-10T13:33:15.648Z,100847.94
2022-11-10T13:35:29.736Z,100849.44
2022-11-10T13:37:34.671Z,100852.91
2022-11-10T13:39:36.683Z,100853.03
2022-11-10T13:41:48.460Z,100832.16
2022-11-10T13:43:53.251Z,100848.22
2022-11-10T13:46:03.677Z,100860.88
2022-11-10T13:48:11.549Z,100873.34
2022-11-10T13:50:28.762Z,100874.50
2022-11-10T13:52:43.028Z,100873.66
2022-11-10T13:54:58.851Z,100884.25
2022-11-10T13:57:11.816Z,100887.03
2022-11-10T13:59:28.961Z,100881.53
2022-11-10T14:01:30.987Z,100885.69
2022-11-10T14:03:45.387Z,100887.03
2022-11-10T14:06:04.778Z,100893.19
2022-11-10T14:08:09.596Z,100907.22
2022-11-10T14:10:17.125Z,100886.88
2022-11-10T14:12:28.725Z,100899.97
2022-11-10T14:14:35.699Z,100897.06
2022-11-10T14:16:42.314Z,100900.06
2022-11-10T14:19:22.964Z,100912.97
2022-11-10T14:21:33.522Z,100918.31
2022-11-10T14:23:45.505Z,100925.47
2022-11-10T14:25:55.982Z,100922.59
2022-11-10T14:27:58.624Z,100919.56
2022-11-10T14:30:24.672Z,100917.75
2022-11-10T14:32:27.011Z,100926.25
2022-11-10T14:34:30.635Z,100934.56
2022-11-10T14:36:33.072Z,100917.81
2022-11-10T14:38:37.206Z,100943.25
2022-11-10T14:40:41.941Z,100953.84
2022-11-10T14:42:45.857Z,100952.41
2022-11-10T14:44:48.793Z,100950.56
2022-11-10T14:46:51.328Z,100969.38
2022-11-10T14:48:58.589Z,100961.66
2022-11-10T14:51:07.211Z,100961.50
2022-11-10T14:53:20.879Z,100963.31
2022-11-10T14:55:27.785Z,100969.66
2022-11-10T14:57:29.828Z,100978.59
2022-11-10T14:59:31.885Z,100957.25
2022-11-10T15:01:38.401Z,100986.09
2022-11-10T15:03:42.573Z,100983.50
2022-11-10T15:05:44.829Z,100991.97
2022-11-10T15:07:47.661Z,100987.53
2022-11-10T15:10:30.932Z,100983.81
2022-11-10T15:12:35.852Z,100990.13
2022-11-10T15:14:45.650Z,100998.59
2022-11-10T15:17:04.253Z,101002.00
2022-11-10T15:19:26.874Z,100996.31
2022-11-10T15:21:34.054Z,101004.28
2022-11-10T15:23:40.911Z,101015.53
2022-11-10T15:25:42.857Z,101009.00
2022-11-10T15:28:00.884Z,101017.66
2022-11-10T15:30:19.949Z,101012.63
2022-11-10T15:32:24.973Z,101023.66
2022-11-10T15:35:06.398Z,101027.88
2022-11-10T15:37:31.216Z,101021.84
2022-11-10T15:39:33.937Z,101020.06
2022-11-10T15:41:36.969Z,101018.16
2022-11-10T15:43:38.914Z,101039.97
2022-11-10T15:45:43.407Z,101038.34
2022-11-10T15:47:46.475Z,101036.56
2022-11-10T15:49:48.523Z,101038.28
2022-11-10T15:51:53.066Z,101038.09
2022-11-10T15:53:55.136Z,101041.53
2022-11-10T15:55:57.402Z,101024.25
2022-11-10T15:57:59.519Z,101048.03
2022-11-10T16:00:01.736Z,101040.50
2022-11-10T16:02:25.347Z,101039.84
2022-11-10T16:04:27.607Z,101052.63
2022-11-10T16:06:30.807Z,101063.56
2022-11-10T16:08:34.766Z,101047.88
2022-11-10T16:10:37.453Z,101067.63
2022-11-10T16:12:39.417Z,101072.88
2022-11-10T16:14:45.490Z,101070.41
2022-11-10T16:16:47.911Z,101085.91
2022-11-10T16:18:51.399Z,101084.13
2022-11-10T16:20:53.533Z,101089.84
2022-11-10T16:22:55.999Z,101101.75
2022-11-10T16:24:57.795Z,101106.13
2022-11-10T16:26:59.811Z,101095.03
2022-11-10T16:29:02.153Z,101114.31
2022-11-10T16:31:08.418Z,101113.94
2022-11-10T16:33:18.342Z,101136.66
2022-11-10T16:35:21.009Z,101119.22
2022-11-10T16:37:22.868Z,101132.44
2022-11-10T16:39:25.348Z,101134.22
2022-11-10T16:41:27.621Z,101123.00
2022-11-10T16:43:31.092Z,101134.44
2022-11-10T16:45:33.849Z,101137.66
2022-11-10T16:47:36.011Z,101141.91
2022-11-10T16:49:44.052Z,101137.75
2022-11-10T16:51:49.007Z,101149.53
2022-11-10T16:53:53.190Z,101156.34
2022-11-10T16:55:55.376Z,101144.09
2022-11-10T16:57:57.776Z,101152.97
2022-11-10T17:00:00.247Z,101158.19
2022-11-10T17:02:02.167Z,101157.72
2022-11-10T17:04:10.224Z,101166.50
2022-11-10T17:06:14.200Z,101151.91
2022-11-10T17:08:23.234Z,101164.78
2022-11-10T17:10:25.230Z,101160.81
2022-11-10T17:12:27.596Z,101162.16
2022-11-10T17:14:29.387Z,101164.53
2022-11-10T17:16:35.770Z,101162.53
2022-11-10T17:18:38.150Z,101151.28
2022-11-10T17:20:41.995Z,101153.88
2022-11-10T17:22:44.245Z,101159.25
2022-11-10T17:24:56.152Z,101169.88
2022-11-10T17:26:58.091Z,101154.84
2022-11-10T17:29:01.062Z,101171.44
2022-11-10T17:31:03.626Z,101165.53
2022-11-10T17:33:06.001Z,101165.13
2022-11-10T17:35:08.328Z,101174.13
2022-11-10T17:37:13.283Z,101175.41
2022-11-10T17:39:16.765Z,101182.19
2022-11-10T17:41:20.211Z,101184.63
2022-11-10T17:43:23.826Z,101180.81
2022-11-10T17:45:28.115Z,101181.44
2022-11-10T17:47:30.193Z,101181.25
2022-11-10T17:49:32.608Z,101192.09
2022-11-10T17:51:36.052Z,101199.69
2022-11-10T17:53:38.086Z,101200.91
2022-11-10T17:55:40.271Z,101204.50
2022-11-10T17:57:42.562Z,101210.75
2022-11-10T17:59:44.365Z,101208.31
2022-11-10T18:01:46.826Z,101218.84
2022-11-10T18:03:50.104Z,101210.50
2022-11-10T18:05:52.742Z,101225.13
2022-11-10T18:07:55.292Z,101212.03
2022-11-10T18:09:57.285Z,101214.50
2022-11-10T18:11:59.119Z,101214.78
2022-11-10T18:14:02.391Z,101217.91
2022-11-10T18:16:05.481Z,101225.75
2022-11-10T18:18:11.183Z,101221.25
2022-11-10T18:20:14.810Z,101209.19
2022-11-10T18:22:16.733Z,101224.75
2022-11-10T18:24:18.579Z,101225.78
2022-11-10T18:26:20.740Z,101227.72
2022-11-10T18:28:22.542Z,101214.41
2022-11-10T18:30:24.399Z,101216.66
2022-11-10T18:32:26.919Z,101228.44
2022-11-10T18:34:28.753Z,101240.94
2022-11-10T18:36:30.548Z,101234.03
2022-11-10T18:38:32.911Z,101229.66
2022-11-10T18:40:34.814Z,101235.78
2022-11-10T18:42:36.803Z,101226.19
2022-11-10T18:44:39.665Z,101230.59
2022-11-10T18:46:41.810Z,101230.38
2022-11-10T18:48:45.776Z,101216.53
2022-11-10T18:50:47.949Z,101237.63
2022-11-10T18:52:49.810Z,101241.00
2022-11-10T18:54:51.621Z,101245.25
2022-11-10T18:56:54.350Z,101247.44
2022-11-10T18:58:57.055Z,101246.91
2022-11-10T19:01:06.657Z,101248.44
2022-11-10T19:03:09.048Z,101246.59
2022-11-10T19:05:11.037Z,101257.91
2022-11-10T19:07:12.963Z,101253.06
2022-11-10T19:09:15.542Z,101255.38
2022-11-10T19:11:20.104Z,101257.09
2022-11-10T19:13:23.495Z,101270.22
2022-11-10T19:15:25.989Z,101259.06
2022-11-10T19:17:27.830Z,101280.03
2022-11-10T19:19:29.727Z,101276.75
2022-11-10T19:21:32.090Z,101276.81
2022-11-10T19:23:34.019Z,101280.78
2022-11-10T19:25:35.999Z,101285.25
2022-11-10T19:27:38.258Z,101291.00
2022-11-10T19:29:40.314Z,101293.22
2022-11-10T19:31:42.391Z,101293.75
2022-11-10T19:33:46.527Z,101300.09
2022-11-10T19:35:48.319Z,101303.66
2022-11-10T19:37:53.850Z,101314.31
2022-11-10T19:39:56.029Z,101310.59
2022-11-10T19:41:57.791Z,101312.03
2022-11-10T19:44:00.341Z,101304.47
2022-11-10T19:46:04.269Z,101317.09
2022-11-10T19:48:06.097Z,101322.53
2022-11-10T19:50:08.458Z,101317.69
2022-11-10T19:52:10.703Z,101332.00
2022-11-10T19:54:13.679Z,101331.78
2022-11-10T19:56:17.287Z,101337.28
2022-11-10T19:58:19.443Z,101314.66
2022-11-10T20:00:21.370Z,101333.84
2022-11-10T20:02:23.365Z,101341.81
2022-11-10T20:04:26.811Z,101337.72
2022-11-10T20:06:28.556Z,101344.88
2022-11-10T20:08:31.003Z,101340.19
2022-11-10T20:10:33.296Z,101310.34
2022-11-10T20:12:35.109Z,101331.75
2022-11-10T20:14:36.918Z,101331.88
2022-11-10T20:16:39.087Z,101333.44
2022-11-10T20:18:41.677Z,101338.38
2022-11-10T20:20:43.459Z,101341.72
2022-11-10T20:22:45.801Z,101331.00
2022-11-10T20:24:51.154Z,101341.19
2022-11-10T20:26:53.126Z,101328.44
2022-11-10T20:28:55.382Z,101323.75
2022-11-10T20:31:00.891Z,101338.00
2022-11-10T20:33:05.085Z,101339.19
2022-11-10T20:35:07.423Z,101332.66
2022-11-10T20:37:09.226Z,101337.59
2022-11-10T20:39:11.186Z,101339.50
2022-11-10T20:41:19.958Z,101350.63
2022-11-10T20:43:22.172Z,101351.44
2022-11-10T20:45:24.302Z,101345.16
2022-11-10T20:47:28.738Z,101348.66
2022-11-10T20:49:31.015Z,101353.94
2022-11-10T20:51:32.847Z,101344.63
2022-11-10T20:53:35.052Z,101344.34
2022-11-10T20:55:53.190Z,101353.16
2022-11-10T20:57:55.796Z,101329.66
2022-11-10T20:59:58.063Z,101334.78
2022-11-10T21:02:00.025Z,101328.56
2022-11-10T21:04:02.631Z,101349.69
2022-11-10T21:06:06.195Z,101349.31
2022-11-10T21:08:08.130Z,101355.41
2022-11-10T21:10:10.030Z,101349.69
2022-11-10T21:12:31.594Z,101348.84
2022-11-10T21:14:33.467Z,101355.22
2022-11-10T21:16:35.359Z,101352.47
2022-11-10T21:18:37.909Z,101360.50
2022-11-10T21:20:39.688Z,101354.19
2022-11-10T21:22:41.483Z,101357.75
2022-11-10T21:24:43.702Z,101363.50
2022-11-10T21:26:45.488Z,101364.91
2022-11-10T21:28:47.673Z,101367.66
2022-11-10T21:30:50.710Z,101373.22
2022-11-10T21:32:52.525Z,101375.25
2022-11-10T21:34:54.348Z,101365.59
2022-11-10T21:36:56.499Z,101364.28
2022-11-10T21:38:59.159Z,101365.59
2022-11-10T21:41:00.958Z,101374.63
2022-11-10T21:43:03.740Z,101371.09
2022-11-10T21:45:06.650Z,101373.81
2022-11-10T21:47:09.912Z,101371.06
2022-11-10T21:49:12.134Z,101376.03
2022-11-10T21:51:16.552Z,101374.44
2022-11-10T21:53:18.357Z,101381.88
2022-11-10T21:55:20.758Z,101377.19
2022-11-10T21:57:22.574Z,101362.44
2022-11-10T21:59:24.356Z,101368.16
2022-11-10T22:01:26.621Z,101376.13
2022-11-10T22:03:29.642Z,101384.88
2022-11-10T22:05:33.354Z,101392.06
2022-11-10T22:07:38.297Z,101367.09
2022-11-10T22:09:58.662Z,101384.34
2022-11-10T22:12:18.802Z,101395.50
2022-11-10T22:14:39.714Z,101390.81
2022-11-10T22:17:08.283Z,101383.69
2022-11-10T22:19:10.089Z,101389.88
2022-11-10T22:21:12.708Z,101373.09
2022-11-10T22:23:14.692Z,101389.06
2022-11-10T22:25:16.488Z,101385.00
2022-11-10T22:27:18.637Z,101382.34
2022-11-10T22:29:21.804Z,101369.78
2022-11-10T22:31:23.797Z,101385.16
2022-11-10T22:33:28.828Z,101378.81
2022-11-10T22:35:46.064Z,101394.72
2022-11-10T22:37:47.832Z,101386.00
2022-11-10T22:40:08.875Z,101402.44
2022-11-10T22:42:32.118Z,101400.84
2022-11-10T22:44:33.969Z,101414.00
2022-11-10T22:46:48.105Z,101415.16
2022-11-10T22:48:50.006Z,101419.59
2022-11-10T22:50:59.452Z,101409.75
2022-11-10T22:53:01.601Z,101416.56
2022-11-10T22:55:03.484Z,101415.25
2022-11-10T22:57:05.460Z,101416.66
2022-11-10T22:59:08.070Z,101426.00
2022-11-10T23:01:11.378Z,101420.50
2022-11-10T23:03:14.189Z,101428.41
2022-11-10T23:05:16.549Z,101427.94
2022-11-10T23:07:18.357Z,101443.88
2022-11-10T23:09:20.343Z,101433.72
2022-11-10T23:11:25.539Z,101433.72
2022-11-10T23:13:27.994Z,101439.75
2022-11-10T23:15:34.664Z,101434.28
2022-11-10T23:17:36.846Z,101438.94
2022-11-10T23:19:38.678Z,101413.97
2022-11-10T23:21:40.521Z,101436.75
2022-11-10T23:23:43.585Z,101447.16
2022-11-10T23:25:55.516Z,101438.88
2022-11-10T23:27:57.295Z,101445.81
2022-11-10T23:29:59.444Z,101442.19
2022-11-10T23:32:01.276Z,101438.63
2022-11-10T23:34:03.167Z,101438.63
2022-11-10T23:36:06.580Z,101425.19
2022-11-10T23:38:08.646Z,101440.56
2022-11-10T23:40:10.841Z,101448.28
2022-11-10T23:42:13.015Z,101441.16
2022-11-10T23:44:14.783Z,101433.44
2022-11-10T23:46:16.550Z,101449.97
2022-11-10T23:48:19.500Z,101451.88
2022-11-10T23:50:21.367Z,101442.28
2022-11-10T23:52:23.134Z,101459.78
2022-11-10T23:54:25.306Z,101448.28
2022-11-10T23:56:27.111Z,101458.66